Time;durP1;ratioP1;P1;durP2;ratioP2;P2;SDS_P1;SDS_P2;PMS_P1;PMS_P2;Temp;Humidity;BMP_temperature;BMP_pressure;BME280_temperature;BME280_humidity;BME280_pressure;Samples;Min_cycle;Max_cycle;Signal;HPM_P1;HPM_P2
2022/06/25 00:02:09;;;;;;;3.10;2.90;;;;;;;-143.84;45.13;45014.78;5072042;28;20504;-75
2022/06/25 00:07:20;;;;;;;5.83;2.43;;;;;;;-143.84;45.43;44976.72;5071934;28;20486;-75
2022/06/25 00:09:47;;;;;;;5.37;2.30;;;;;;;-143.84;45.36;44971.00;5071685;28;20444;-75
2022/06/25 00:15:11;;;;;;;4.80;2.60;;;;;;;-143.84;45.50;44993.84;5068861;28;21032;-75
2022/06/25 00:17:40;;;;;;;2.67;2.43;;;;;;;-143.84;45.69;44999.56;5071912;28;21047;-75
2022/06/25 00:20:08;;;;;;;3.10;2.43;;;;;;;-143.84;46.08;44980.53;5071541;28;20441;-75
2022/06/25 00:22:36;;;;;;;7.30;3.40;;;;;;;-143.84;46.00;44967.19;5071355;28;20510;-75
2022/06/25 00:25:03;;;;;;;3.93;2.50;;;;;;;-143.84;46.35;45010.97;5071400;28;20472;-74
2022/06/25 00:27:31;;;;;;;11.60;3.87;;;;;;;-143.84;46.26;44982.41;5071115;28;20443;-74
2022/06/25 00:29:58;;;;;;;6.27;3.10;;;;;;;-143.84;46.18;44969.09;5071271;28;20495;-73
2022/06/25 00:32:25;;;;;;;4.37;2.90;;;;;;;-143.84;46.11;44986.22;5071271;28;20906;-74
2022/06/25 00:34:53;;;;;;;10.97;2.93;;;;;;;-143.84;46.43;44982.41;5071349;28;20437;-74
2022/06/25 00:37:20;;;;;;;10.53;2.60;;;;;;;-143.84;46.58;44961.47;5070711;28;20553;-74
2022/06/25 00:39:48;;;;;;;4.23;2.20;;;;;;;-143.84;46.68;44991.94;5071234;28;20433;-75
2022/06/25 00:42:15;;;;;;;4.43;2.70;;;;;;;-143.84;46.91;44980.53;5071181;28;20428;-76
2022/06/25 00:44:43;;;;;;;3.87;3.37;;;;;;;-143.84;46.86;44988.13;5071100;28;20444;-74
2022/06/25 00:47:12;;;;;;;8.83;3.87;;;;;;;-143.84;47.03;45018.59;5071040;28;20877;-74
2022/06/25 00:49:40;;;;;;;3.13;2.83;;;;;;;-143.84;47.15;44980.53;5070899;28;20443;-74
2022/06/25 00:52:12;;;;;;;3.23;2.73;;;;;;;-143.84;47.31;44986.22;5070637;28;20441;-74
2022/06/25 00:54:43;;;;;;;4.63;2.73;;;;;;;-143.84;47.20;44976.72;5071273;28;20460;-73
2022/06/25 00:57:14;;;;;;;9.80;3.10;;;;;;;-143.84;47.23;44999.56;5070739;28;20514;-74
2022/06/25 00:59:44;;;;;;;5.87;3.30;;;;;;;-143.84;47.41;44993.84;5070629;28;20437;-74
2022/06/25 01:02:11;;;;;;;3.50;2.80;;;;;;;-143.84;47.26;44972.91;5070315;28;20433;-74
2022/06/25 01:04:39;;;;;;;13.53;3.20;;;;;;;-143.84;47.66;44995.75;5070440;28;20448;-74
2022/06/25 01:07:07;;;;;;;5.83;2.23;;;;;;;-143.84;47.70;44969.09;5070393;28;20447;-74
2022/06/25 01:09:37;;;;;;;3.80;3.03;;;;;;;-143.84;47.77;44980.53;5070378;28;20498;-74
2022/06/25 01:12:05;;;;;;;3.10;2.67;;;;;;;-143.84;47.48;44984.31;5070906;28;20788;-75
2022/06/25 01:14:32;;;;;;;9.10;2.87;;;;;;;-143.84;47.81;44984.31;5070739;28;20610;-74
2022/06/25 01:17:00;;;;;;;6.77;2.80;;;;;;;-143.84;48.08;44988.13;5070548;28;20460;-75
2022/06/25 01:19:29;;;;;;;13.13;3.50;;;;;;;-143.84;48.03;44986.22;5070611;28;20437;-74
2022/06/25 01:22:01;;;;;;;7.33;2.47;;;;;;;-143.84;48.54;45003.38;5070481;28;20473;-74
2022/06/25 01:24:28;;;;;;;5.57;3.00;;;;;;;-143.84;48.55;44982.41;5070797;28;20441;-74
2022/06/25 01:26:55;;;;;;;5.27;3.47;;;;;;;-143.84;48.72;45005.28;5070618;28;20474;-76
2022/06/25 01:29:22;;;;;;;4.20;3.67;;;;;;;-143.84;48.45;45007.19;5070280;28;20440;-74
2022/06/25 01:31:50;;;;;;;11.93;3.10;;;;;;;-143.84;48.96;44995.75;5070457;28;20448;-74
2022/06/25 01:34:19;;;;;;;9.03;2.60;;;;;;;-143.84;49.11;44990.03;5070547;28;20472;-74
2022/06/25 01:36:46;;;;;;;4.90;2.93;;;;;;;-143.84;49.37;45001.47;5070820;28;20459;-74
2022/06/25 01:39:15;;;;;;;3.57;3.13;;;;;;;-143.84;49.39;45003.38;5069985;28;21013;-74
2022/06/25 01:41:42;;;;;;;7.87;2.90;;;;;;;-143.84;49.83;44990.03;5069687;28;20445;-75
2022/06/25 01:44:09;;;;;;;19.43;3.27;;;;;;;-143.84;49.74;44974.81;5069675;28;20454;-74
2022/06/25 01:46:36;;;;;;;9.80;3.50;;;;;;;-143.84;50.22;44965.28;5070125;28;20433;-75
2022/06/25 01:49:04;;;;;;;5.40;3.00;;;;;;;-143.84;50.15;44997.66;5069863;28;20449;-75
2022/06/25 01:51:31;;;;;;;7.23;2.57;;;;;;;-143.84;50.08;45022.41;5069621;28;20498;-75
2022/06/25 01:53:58;;;;;;;3.60;3.20;;;;;;;-143.84;50.19;44993.84;5069618;28;20453;-76
2022/06/25 01:56:27;;;;;;;17.43;3.93;;;;;;;-143.84;50.57;44999.56;5069158;28;20448;-75
2022/06/25 01:58:54;;;;;;;7.77;2.80;;;;;;;-143.84;50.54;44974.81;5069957;28;20866;-76
2022/06/25 02:01:21;;;;;;;8.77;3.50;;;;;;;-143.84;50.65;44997.66;5070067;28;20441;-76
2022/06/25 02:03:49;;;;;;;7.00;2.77;;;;;;;-143.84;50.73;44991.94;5070157;28;20449;-75
2022/06/25 02:06:16;;;;;;;3.40;2.77;;;;;;;-143.84;50.77;45007.19;5068334;28;20441;-76
2022/06/25 02:08:44;;;;;;;5.87;2.73;;;;;;;-143.84;51.16;44959.56;5067867;28;20441;-75
2022/06/25 02:11:12;;;;;;;3.40;2.90;;;;;;;-143.84;51.13;44984.31;5067963;28;20444;-75
2022/06/25 02:13:40;;;;;;;3.73;3.00;;;;;;;-143.84;51.27;45003.38;5069322;28;20441;-75
2022/06/25 02:16:08;;;;;;;10.63;3.20;;;;;;;-143.84;51.47;44988.13;5068803;28;20483;-76
2022/06/25 02:18:35;;;;;;;5.60;3.20;;;;;;;-143.84;51.64;44984.31;5068999;28;20885;-75
2022/06/25 02:21:02;;;;;;;7.43;3.20;;;;;;;-143.84;51.50;44999.56;5069314;28;20979;-75
2022/06/25 02:23:29;;;;;;;6.80;2.70;;;;;;;-143.84;51.92;44997.66;5069262;28;20432;-75
2022/06/25 02:25:59;;;;;;;9.43;3.03;;;;;;;-143.84;51.73;44982.41;5069066;28;20445;-75
2022/06/25 02:28:26;;;;;;;6.33;3.43;;;;;;;-143.84;51.78;44982.41;5069256;28;20866;-75
2022/06/25 02:30:55;;;;;;;6.07;3.27;;;;;;;-143.84;51.98;45001.47;5069575;28;20441;-75
2022/06/25 02:33:22;;;;;;;6.20;2.80;;;;;;;-143.84;52.00;44974.81;5069586;28;21029;-75
2022/06/25 02:39:11;;;;;;;7.40;3.40;;;;;;;-143.84;52.43;45010.97;5070386;28;20467;-77
2022/06/25 02:41:38;;;;;;;5.07;3.00;;;;;;;-143.84;52.38;44990.03;5070203;28;20433;-77
2022/06/25 02:44:05;;;;;;;4.20;2.93;;;;;;;-143.84;52.63;44991.94;5069831;28;20455;-77
2022/06/25 02:46:34;;;;;;;6.07;3.17;;;;;;;-143.84;52.67;44993.84;5069655;28;20440;-75
2022/06/25 02:49:02;;;;;;;5.33;3.13;;;;;;;-143.84;52.75;44990.03;5069813;28;20449;-76
2022/06/25 02:51:29;;;;;;;4.07;3.10;;;;;;;-143.84;53.12;45003.38;5072913;28;20432;-76
2022/06/25 02:53:59;;;;;;;12.33;3.43;;;;;;;-143.84;52.90;44990.03;5073279;28;20879;-76
2022/06/25 02:59:11;;;;;;;9.40;3.00;;;;;;;-143.84;53.05;45001.47;5073122;28;20471;-76
2022/06/25 03:01:49;;;;;;;4.10;3.23;;;;;;;-143.84;53.27;44982.41;5072665;28;20436;-76
2022/06/25 03:04:16;;;;;;;5.17;3.57;;;;;;;-143.84;53.07;45005.28;5072834;28;20958;-76
2022/06/25 03:06:43;;;;;;;4.50;2.83;;;;;;;-143.84;52.90;45001.47;5072461;28;20444;-75
2022/06/25 03:09:11;;;;;;;5.43;3.30;;;;;;;-143.84;52.62;44988.13;5072473;28;20862;-75
2022/06/25 03:11:38;;;;;;;3.33;3.03;;;;;;;-143.84;52.79;44991.94;5072643;28;20926;-75
2022/06/25 03:14:06;;;;;;;5.60;2.93;;;;;;;-143.84;52.38;45005.28;5072841;28;20481;-73
2022/06/25 03:16:34;;;;;;;8.83;3.00;;;;;;;-143.84;52.12;45003.38;5052137;28;20458;-75
2022/06/25 03:19:03;;;;;;;13.73;3.60;;;;;;;-143.84;51.93;44986.22;5052044;28;20480;-75
2022/06/25 03:21:31;;;;;;;9.90;3.20;;;;;;;-143.84;51.23;44993.84;5052436;28;20449;-75
2022/06/25 03:23:58;;;;;;;12.13;2.80;;;;;;;-143.84;51.41;44990.03;5052471;28;20867;-76
2022/06/25 03:26:25;;;;;;;2.63;2.43;;;;;;;-143.84;51.61;44993.84;5052659;28;20441;-76
2022/06/25 03:28:52;;;;;;;4.03;3.43;;;;;;;-143.84;51.13;44961.47;5052616;28;20481;-76
2022/06/25 03:31:20;;;;;;;6.50;3.20;;;;;;;-143.84;50.96;44988.13;5052623;28;20943;-76
2022/06/25 03:33:48;;;;;;;6.73;2.90;;;;;;;-143.84;51.10;44982.41;5052547;28;20448;-75
2022/06/25 03:36:17;;;;;;;5.33;3.27;;;;;;;-143.84;50.39;44969.09;5051691;28;20491;-75
2022/06/25 03:38:44;;;;;;;6.20;3.00;;;;;;;-143.84;49.86;44969.09;5051288;28;20474;-75
2022/06/25 03:43:55;;;;;;;3.73;3.20;;;;;;;-143.84;46.35;44978.63;5048608;28;20530;-76
2022/06/25 03:46:23;;;;;;;10.43;3.20;;;;;;;-143.84;44.80;44982.41;5046545;28;20461;-75
2022/06/25 03:48:50;;;;;;;3.33;2.90;;;;;;;-143.84;44.31;44961.47;5051562;28;20442;-76
2022/06/25 03:51:19;;;;;;;4.20;3.30;;;;;;;-143.84;44.75;44961.47;5052346;28;20791;-76
2022/06/25 03:53:46;;;;;;;6.00;3.70;;;;;;;-143.84;45.05;44978.63;5052102;28;20446;-77
2022/06/25 03:56:13;;;;;;;3.70;3.03;;;;;;;-143.84;45.47;44974.81;5052318;28;20429;-75
2022/06/25 03:58:40;;;;;;;10.83;2.90;;;;;;;-143.84;45.55;44986.22;5031152;28;20482;-74
2022/06/25 04:01:07;;;;;;;3.93;2.60;;;;;;;-143.84;46.10;44953.88;5031070;28;20439;-75
2022/06/25 04:03:34;;;;;;;5.90;3.40;;;;;;;-143.84;45.99;44967.19;5051379;28;20958;-75
2022/06/25 04:06:02;;;;;;;3.23;3.03;;;;;;;-143.84;46.17;44980.53;5051087;28;20967;-73
2022/06/25 04:08:30;;;;;;;4.10;3.10;;;;;;;-143.84;47.12;44951.97;5051054;28;20445;-74
2022/06/25 04:10:58;;;;;;;10.07;3.17;;;;;;;-143.84;47.29;44980.53;5051556;28;20569;-75
2022/06/25 04:13:25;;;;;;;3.50;2.90;;;;;;;-143.84;47.36;44974.81;5052110;28;20426;-76
2022/06/25 04:15:52;;;;;;;5.97;3.23;;;;;;;-143.84;47.36;44995.75;5066193;28;20485;-75
2022/06/25 04:18:20;;;;;;;6.27;3.47;;;;;;;-143.84;47.29;44965.28;5071245;28;20534;-73
2022/06/25 04:20:47;;;;;;;3.57;2.90;;;;;;;-143.84;47.13;44948.16;5071274;28;20433;-75
2022/06/25 04:23:14;;;;;;;10.83;3.30;;;;;;;-143.84;47.58;44965.28;5071212;28;20440;-73
2022/06/25 04:25:43;;;;;;;9.63;3.73;;;;;;;-143.84;47.79;44990.03;5071411;28;20815;-75
2022/06/25 04:30:54;;;;;;;5.33;3.00;;;;;;;-143.84;48.11;44982.41;5071608;28;20407;-75
2022/06/25 04:33:22;;;;;;;3.80;3.50;;;;;;;-143.84;47.61;44961.47;5071206;28;20433;-75
2022/06/25 04:35:49;;;;;;;4.57;3.13;;;;;;;-143.84;47.20;44969.09;5071173;28;20498;-75
2022/06/25 04:38:17;;;;;;;5.33;2.97;;;;;;;-143.84;47.24;44993.84;5071213;28;20480;-75
2022/06/25 04:40:45;;;;;;;8.90;3.33;;;;;;;-143.84;46.69;44971.00;5071294;28;20460;-76
2022/06/25 04:43:12;;;;;;;6.83;2.90;;;;;;;-143.84;46.42;44965.28;5071154;28;21221;-75
2022/06/25 04:45:40;;;;;;;7.17;3.00;;;;;;;-143.84;46.32;44988.13;5071109;28;20502;-75
2022/06/25 04:48:08;;;;;;;6.60;3.93;;;;;;;-143.84;46.76;44990.03;5071032;28;21176;-75
2022/06/25 04:50:35;;;;;;;9.23;3.40;;;;;;;-143.84;46.79;44978.63;5070846;28;20878;-75
2022/06/25 04:53:02;;;;;;;3.17;2.87;;;;;;;-143.84;46.95;44978.63;5070874;28;20506;-73
2022/06/25 04:55:29;;;;;;;3.10;2.90;;;;;;;-143.84;46.65;44984.31;5070743;28;20828;-75
2022/06/25 04:57:58;;;;;;;4.37;3.97;;;;;;;-143.84;46.06;44967.19;5070582;28;20437;-75
2022/06/25 05:00:25;;;;;;;3.70;2.90;;;;;;;-143.84;45.24;44984.31;5070380;28;20506;-75
2022/06/25 05:02:52;;;;;;;9.80;3.27;;;;;;;-143.84;44.14;44963.38;5070268;28;20487;-76
2022/06/25 05:05:19;;;;;;;3.70;3.40;;;;;;;-143.84;43.12;44965.28;5070528;28;20931;-76
2022/06/25 05:07:47;;;;;;;4.80;3.67;;;;;;;-143.84;42.91;44946.25;5070910;28;20440;-76
2022/06/25 05:10:14;;;;;;;3.93;3.40;;;;;;;-143.84;42.61;44963.38;5070498;28;21259;-75
2022/06/25 05:15:27;;;;;;;4.43;3.33;;;;;;;-143.84;42.58;44953.88;5070398;28;20478;-76
2022/06/25 05:17:54;;;;;;;3.37;2.57;;;;;;;-143.84;41.97;44959.56;5070470;28;20449;-76
2022/06/25 05:20:21;;;;;;;3.50;3.20;;;;;;;-143.84;42.11;44938.63;5070213;28;20510;-76
2022/06/25 05:22:48;;;;;;;3.80;3.47;;;;;;;-143.84;42.30;44927.19;5070177;28;20850;-75
2022/06/25 05:25:15;;;;;;;3.13;2.83;;;;;;;-143.84;41.92;44955.75;5070714;28;20476;-75
2022/06/25 05:27:43;;;;;;;3.13;2.93;;;;;;;-143.84;42.52;44940.53;5070268;28;20494;-75
2022/06/25 05:30:10;;;;;;;3.37;3.17;;;;;;;-143.84;42.48;44944.34;5070037;28;20768;-76
2022/06/25 05:32:39;;;;;;;4.77;3.07;;;;;;;-143.84;42.12;44946.25;5069897;28;20440;-76
2022/06/25 05:35:08;;;;;;;7.73;2.87;;;;;;;-143.84;42.59;44959.56;5069768;28;20437;-75
2022/06/25 05:37:35;;;;;;;4.50;3.20;;;;;;;-143.84;42.27;44971.00;5070352;28;21210;-75
2022/06/25 05:40:02;;;;;;;4.30;3.33;;;;;;;-143.84;42.99;44953.88;5069834;28;20533;-75
2022/06/25 05:42:31;;;;;;;3.20;2.90;;;;;;;-143.84;43.13;44971.00;5069867;28;20448;-75
2022/06/25 05:44:58;;;;;;;3.20;2.77;;;;;;;-143.84;43.00;44932.91;5070177;28;21019;-75
2022/06/25 05:47:25;;;;;;;4.33;3.20;;;;;;;-143.84;43.12;44950.06;5069832;28;20441;-75
2022/06/25 05:49:54;;;;;;;3.93;3.57;;;;;;;-143.84;42.49;44934.81;5070203;28;20452;-76
2022/06/25 05:52:21;;;;;;;3.67;2.80;;;;;;;-143.84;41.09;44934.81;5070013;28;20553;-75
2022/06/25 05:54:48;;;;;;;2.80;2.60;;;;;;;-143.84;41.90;44911.97;5070160;28;20491;-76
2022/06/25 05:57:16;;;;;;;5.80;2.90;;;;;;;-143.84;41.81;44938.63;5070144;28;20433;-76
2022/06/25 05:59:43;;;;;;;4.23;3.20;;;;;;;-143.84;40.32;44911.97;5069595;28;20481;-76
2022/06/25 06:02:10;;;;;;;5.80;3.10;;;;;;;-143.84;41.38;44919.59;5069948;28;20455;-76
2022/06/25 06:04:38;;;;;;;8.97;3.50;;;;;;;-143.84;40.21;44906.25;5069627;28;20930;-76
2022/06/25 06:07:06;;;;;;;13.43;4.10;;;;;;;-143.84;39.84;44913.88;5069718;28;20445;-76
2022/06/25 06:09:34;;;;;;;11.73;3.77;;;;;;;-143.84;38.38;44898.66;5069655;28;20833;-77
2022/06/25 06:12:01;;;;;;;7.03;4.10;;;;;;;-143.84;38.09;44902.44;5069774;28;20444;-74
2022/06/25 06:14:29;;;;;;;12.13;4.00;;;;;;;-143.84;37.54;44881.50;5069804;28;20476;-74
2022/06/25 06:16:57;;;;;;;3.87;3.53;;;;;;;-143.84;37.25;44871.97;5069388;28;20977;-74
2022/06/25 06:19:24;;;;;;;4.87;3.53;;;;;;;-143.84;36.37;44892.94;5069739;28;20575;-74
2022/06/25 06:21:51;;;;;;;16.37;3.80;;;;;;;-143.84;36.47;44873.88;5070128;28;20490;-74
2022/06/25 06:24:20;;;;;;;9.63;2.97;;;;;;;-143.84;36.11;44856.75;5071186;28;20831;-74
2022/06/25 06:26:47;;;;;;;3.20;3.00;;;;;;;-143.84;36.16;44862.47;5073574;28;20519;-74
2022/06/25 06:29:14;;;;;;;6.23;3.50;;;;;;;-143.84;35.52;44858.66;5071814;28;20873;-74
2022/06/25 06:31:41;;;;;;;5.83;3.67;;;;;;;-143.84;35.20;44828.19;5071456;28;20947;-74
2022/06/25 06:34:08;;;;;;;6.90;3.00;;;;;;;-143.84;35.01;44828.19;5073192;28;20437;-75
2022/06/25 06:36:36;;;;;;;6.70;3.10;;;;;;;-143.84;34.30;44820.56;5072740;28;20494;-74
2022/06/25 06:39:03;;;;;;;7.70;3.70;;;;;;;-143.84;34.14;44824.38;5072770;28;20488;-75
2022/06/25 06:41:31;;;;;;;5.40;3.10;;;;;;;-143.84;33.80;44811.06;5073826;28;20437;-74
2022/06/25 06:43:58;;;;;;;3.40;3.20;;;;;;;-143.84;33.72;44824.38;5073895;28;20891;-75
2022/06/25 06:46:25;;;;;;;3.67;3.30;;;;;;;-143.84;34.10;44835.81;5073411;28;20506;-74
2022/06/25 06:48:53;;;;;;;7.47;3.40;;;;;;;-143.84;34.09;44790.13;5074468;28;20441;-75
2022/06/25 06:51:20;;;;;;;3.93;3.63;;;;;;;-143.84;34.18;44774.88;5073145;28;20954;-75
2022/06/25 06:53:47;;;;;;;3.93;2.97;;;;;;;-143.84;33.33;44809.16;5073595;28;20460;-75
2022/06/25 06:56:14;;;;;;;4.73;3.13;;;;;;;-143.84;33.68;44851.03;5073612;28;20443;-75
2022/06/25 06:58:43;;;;;;;4.40;2.97;;;;;;;-143.84;33.48;44830.09;5073513;28;20958;-75
2022/06/25 07:01:10;;;;;;;7.10;3.53;;;;;;;-143.84;33.25;44771.06;5073398;28;20447;-75
2022/06/25 07:03:38;;;;;;;12.33;3.70;;;;;;;-143.84;32.73;44792.00;5073099;28;20475;-75
2022/06/25 07:06:05;;;;;;;6.53;3.30;;;;;;;-143.84;33.83;44792.00;5073356;28;20836;-76
2022/06/25 07:08:32;;;;;;;6.00;3.67;;;;;;;-143.84;33.76;44778.69;5073002;28;20436;-76
2022/06/25 07:10:59;;;;;;;16.53;4.10;;;;;;;-143.84;33.70;44805.34;5064645;28;20467;-75
2022/06/25 07:13:26;;;;;;;5.20;3.30;;;;;;;-143.84;33.32;44816.78;5072755;28;20929;-77
2022/06/25 07:15:55;;;;;;;13.63;3.70;;;;;;;-143.84;33.19;44776.78;5070957;28;20483;-76
2022/06/25 07:18:22;;;;;;;4.77;3.50;;;;;;;-143.84;33.11;44805.34;5068076;28;20798;-77
2022/06/25 07:20:49;;;;;;;7.40;3.40;;;;;;;-143.84;33.47;44805.34;5072693;28;20480;-77
2022/06/25 07:23:16;;;;;;;4.07;2.97;;;;;;;-143.84;33.35;44803.44;5073831;28;20432;-77
2022/06/25 07:25:43;;;;;;;3.23;3.03;;;;;;;-143.84;33.20;44778.69;5073572;28;20436;-76
2022/06/25 07:28:11;;;;;;;3.73;3.20;;;;;;;-143.84;33.49;44792.00;5073015;28;20440;-77
2022/06/25 07:30:38;;;;;;;14.67;3.57;;;;;;;-143.84;33.16;44797.72;5072657;28;20817;-77
2022/06/25 07:33:06;;;;;;;4.70;3.03;;;;;;;-143.84;33.25;44765.34;5073175;28;20444;-77
2022/06/25 07:35:33;;;;;;;3.70;3.50;;;;;;;-143.84;33.66;44759.66;5071703;28;20958;-76
2022/06/25 07:38:01;;;;;;;3.47;3.27;;;;;;;-143.84;32.92;44793.91;5072608;28;20471;-77
2022/06/25 07:40:28;;;;;;;13.63;2.97;;;;;;;-143.84;32.65;44755.84;5071464;28;20477;-74
2022/06/25 07:42:55;;;;;;;10.20;3.70;;;;;;;-143.84;33.10;44790.13;5071200;28;20495;-72
2022/06/25 07:45:22;;;;;;;5.93;3.27;;;;;;;-143.84;33.42;44784.41;5070896;28;20931;-73
2022/06/25 07:47:49;;;;;;;6.80;3.60;;;;;;;-143.84;32.77;44792.00;5071180;28;20844;-72
2022/06/25 07:53:03;;;;;;;4.50;3.30;;;;;;;-143.84;32.85;44820.56;5071283;28;20897;-71
2022/06/25 07:55:30;;;;;;;4.00;3.60;;;;;;;-143.84;32.58;44818.66;5071188;28;20958;-72
2022/06/25 07:57:57;;;;;;;10.20;3.50;;;;;;;-143.84;33.07;44809.16;5071250;28;20457;-74
2022/06/25 08:00:24;;;;;;;7.67;3.40;;;;;;;-143.84;33.27;44782.50;5070735;28;20588;-69
2022/06/25 08:02:52;;;;;;;5.10;3.30;;;;;;;-143.84;32.86;44816.78;5070390;28;20456;-72
2022/06/25 08:05:21;;;;;;;3.80;3.10;;;;;;;-143.84;32.88;44782.50;5070610;28;20465;-72
2022/06/25 08:07:49;;;;;;;3.50;3.20;;;;;;;-143.84;33.26;44799.63;5070968;28;20445;-73
2022/06/25 08:10:16;;;;;;;5.03;3.50;;;;;;;-143.84;33.33;44793.91;5070714;28;20507;-72
2022/06/25 08:12:44;;;;;;;5.13;3.70;;;;;;;-143.84;32.38;44812.97;5070475;28;20470;-72
2022/06/25 08:15:13;;;;;;;3.77;3.53;;;;;;;-143.84;32.54;44812.97;5070498;28;20473;-72
2022/06/25 08:17:40;;;;;;;5.30;3.90;;;;;;;-143.84;33.68;44795.81;5070651;28;20457;-72
2022/06/25 08:20:09;;;;;;;12.97;3.90;;;;;;;-143.84;33.37;44818.66;5070601;28;20480;-72
2022/06/25 08:22:37;;;;;;;5.27;3.70;;;;;;;-143.84;33.37;44778.69;5070399;28;20445;-73
2022/06/25 08:25:07;;;;;;;8.43;3.40;;;;;;;-143.84;33.77;44763.47;5070615;28;20440;-72
2022/06/25 08:27:35;;;;;;;7.23;4.27;;;;;;;-143.84;34.06;44774.88;5070561;28;20469;-73
2022/06/25 08:30:02;;;;;;;4.40;3.17;;;;;;;-143.84;34.24;44763.47;5070651;28;20930;-72
2022/06/25 08:32:29;;;;;;;4.90;3.07;;;;;;;-143.84;32.17;44793.91;5070251;28;20856;-72
2022/06/25 08:34:56;;;;;;;8.07;3.03;;;;;;;-143.84;32.49;44782.50;5070067;28;20510;-72
2022/06/25 08:37:23;;;;;;;7.37;3.10;;;;;;;-143.84;33.39;44778.69;5070047;28;20952;-72
2022/06/25 08:39:52;;;;;;;3.23;3.03;;;;;;;-143.84;33.81;44752.03;5070041;28;20476;-71
2022/06/25 08:42:20;;;;;;;3.87;3.47;;;;;;;-143.84;33.73;44769.16;5069886;28;20452;-74
2022/06/25 08:44:47;;;;;;;6.33;3.37;;;;;;;-143.84;32.29;44748.22;5069938;28;20437;-75
2022/06/25 08:47:14;;;;;;;5.40;3.47;;;;;;;-143.84;30.36;44729.19;5069517;28;20502;-75
2022/06/25 08:49:42;;;;;;;3.30;3.00;;;;;;;-143.84;31.33;44772.97;5070903;28;20436;-78
2022/06/25 08:52:11;;;;;;;6.40;3.43;;;;;;;-143.84;31.64;44824.38;5072495;28;20945;-78
2022/06/25 08:54:41;;;;;;;7.23;2.83;;;;;;;-143.84;30.89;44830.09;5070909;28;20919;-78
2022/06/25 08:57:10;;;;;;;4.00;3.67;;;;;;;-143.84;31.64;44795.81;5072030;28;20437;-78
2022/06/25 08:59:38;;;;;;;7.50;3.77;;;;;;;-143.84;31.96;44797.72;5072215;28;20469;-77
2022/06/25 09:02:05;;;;;;;7.80;4.00;;;;;;;-143.84;32.69;44835.81;5072175;28;20443;-78
2022/06/25 09:04:32;;;;;;;3.87;3.20;;;;;;;-143.84;33.48;44812.97;5071896;28;20509;-78
2022/06/25 09:07:11;;;;;;;5.63;3.13;;;;;;;-143.84;38.03;44862.47;5071540;28;20519;-78
2022/06/25 09:09:39;;;;;;;3.90;3.40;;;;;;;-143.84;38.09;44871.97;5069294;28;20528;-77
2022/06/25 09:12:09;;;;;;;5.27;2.53;;;;;;;-143.84;38.15;44866.28;5069858;28;20510;-78
2022/06/25 09:14:38;;;;;;;5.47;2.60;;;;;;;-143.84;38.90;44873.88;5069888;28;20476;-77
2022/06/25 09:17:08;;;;;;;4.50;3.27;;;;;;;-143.84;41.48;44868.19;5063009;28;20688;-78
2022/06/25 09:19:37;;;;;;;3.47;2.93;;;;;;;-143.84;41.53;44875.78;5070687;28;20950;-78
2022/06/25 09:22:06;;;;;;;3.50;3.20;;;;;;;-143.84;43.79;44906.25;5070349;28;20829;-77
2022/06/25 09:24:46;;;;;;;12.00;3.23;;;;;;;-143.84;43.41;44889.13;5053740;28;20453;-79
2022/06/25 09:27:16;;;;;;;5.10;3.23;;;;;;;-143.84;43.55;44900.53;5051091;28;20442;-79
2022/06/25 09:29:45;;;;;;;3.70;3.23;;;;;;;-143.84;42.97;44894.84;5050975;28;20515;-78
2022/06/25 09:32:13;;;;;;;5.47;3.30;;;;;;;-143.84;42.59;44866.28;5050337;28;20448;-78
2022/06/25 09:34:41;;;;;;;2.93;2.73;;;;;;;-143.84;42.08;44891.03;5050260;28;20810;-78
2022/06/25 09:37:22;;;;;;;3.73;3.43;;;;;;;-143.84;42.11;44900.53;5049824;28;20441;-78
2022/06/25 09:39:51;;;;;;;4.43;3.03;;;;;;;-143.84;42.16;44879.59;5049696;28;20470;-79
2022/06/25 09:42:31;;;;;;;2.83;2.63;;;;;;;-143.84;42.71;44911.97;5049958;28;20505;-79
2022/06/25 09:45:07;;;;;;;16.40;3.20;;;;;;;-143.84;42.76;44892.94;5049460;28;20492;-78
2022/06/25 09:47:39;;;;;;;6.37;3.30;;;;;;;-143.84;43.82;44902.44;5049878;28;20487;-79
2022/06/25 09:50:09;;;;;;;3.80;3.30;;;;;;;-143.84;45.11;44900.53;5049109;28;20445;-78
2022/06/25 09:52:38;;;;;;;4.97;3.03;;;;;;;-143.84;46.82;44915.78;5049966;28;20437;-78
2022/06/25 09:55:07;;;;;;;5.93;3.10;;;;;;;-143.84;48.95;44894.84;5052988;28;20512;-79
2022/06/25 09:57:36;;;;;;;3.70;3.40;;;;;;;-143.84;49.17;44919.59;5070486;28;20421;-78
2022/06/25 10:00:04;;;;;;;4.53;3.53;;;;;;;-143.84;48.54;44923.41;5069913;28;20534;-79
2022/06/25 10:02:32;;;;;;;4.70;3.10;;;;;;;-143.84;48.91;44932.91;5070987;28;20440;-79
2022/06/25 10:05:03;;;;;;;7.70;3.53;;;;;;;-143.84;49.54;44925.31;5070165;28;20444;-78
2022/06/25 10:10:18;;;;;;;5.87;3.47;;;;;;;-143.84;49.76;44921.50;5057267;28;20440;-79
2022/06/25 10:12:48;;;;;;;4.07;3.00;;;;;;;-143.84;49.21;44892.94;5071074;28;20506;-79
2022/06/25 10:15:17;;;;;;;3.27;2.97;;;;;;;-143.84;49.20;44938.63;5070197;28;20507;-79
2022/06/25 10:17:46;;;;;;;3.77;3.47;;;;;;;-143.84;48.38;44891.03;5070629;28;20560;-79
2022/06/25 10:20:14;;;;;;;3.20;3.00;;;;;;;-143.84;48.69;44919.59;5051912;28;20492;-79
2022/06/25 10:22:42;;;;;;;6.00;3.50;;;;;;;-143.84;47.66;44917.69;5050300;28;20799;-79
2022/06/25 10:25:12;;;;;;;9.77;3.70;;;;;;;-143.84;47.52;44921.50;5050823;28;20442;-76
2022/06/25 10:27:40;;;;;;;3.87;2.90;;;;;;;-143.84;47.38;44896.75;5049323;28;20495;-75
2022/06/25 10:30:09;;;;;;;11.23;2.80;;;;;;;-143.84;47.26;44921.50;5050019;28;20434;-79
2022/06/25 10:32:45;;;;;;;4.23;3.40;;;;;;;-143.84;45.45;44927.19;5049622;28;20422;-78
2022/06/25 10:35:28;;;;;;;12.10;2.77;;;;;;;-143.84;45.59;44902.44;5049740;28;20468;-78
2022/06/25 10:38:04;;;;;;;4.00;2.90;;;;;;;-143.84;46.12;44904.34;5049891;28;20433;-78
2022/06/25 10:40:33;;;;;;;4.30;3.00;;;;;;;-143.84;46.56;44910.06;5049556;28;20485;-77
2022/06/25 10:43:25;;;;;;;3.13;2.80;;;;;;;-143.84;48.06;44931.00;5049196;28;20441;-77
2022/06/25 10:45:54;;;;;;;4.00;3.70;;;;;;;-143.84;48.83;44917.69;5049641;28;21028;-78
2022/06/25 10:48:23;;;;;;;4.33;3.47;;;;;;;-143.84;49.57;44938.63;5049075;28;20438;-78
2022/06/25 10:50:55;;;;;;;5.30;4.20;;;;;;;-143.84;49.42;44906.25;5048381;28;20516;-78
2022/06/25 10:53:27;;;;;;;11.93;6.70;;;;;;;-143.84;49.97;44927.19;5049298;28;20861;-78
2022/06/25 10:56:16;;;;;;;7.97;4.70;;;;;;;-143.84;49.33;44927.19;5048178;28;20962;-77
2022/06/25 10:58:48;;;;;;;4.33;4.03;;;;;;;-143.84;50.02;44902.44;5047310;28;20434;-79
2022/06/25 11:01:29;;;;;;;13.73;3.37;;;;;;;-143.84;50.25;44919.59;5048980;28;20479;-78
2022/06/25 11:03:59;;;;;;;3.60;3.30;;;;;;;-143.84;50.47;44927.19;5048581;28;20438;-78
2022/06/25 11:06:29;;;;;;;4.83;2.87;;;;;;;-143.84;50.14;44940.53;5049237;28;20438;-79
2022/06/25 11:09:03;;;;;;;3.37;3.17;;;;;;;-143.84;50.13;44923.41;5049752;28;20448;-79
2022/06/25 11:11:33;;;;;;;4.00;2.80;;;;;;;-143.84;49.22;44938.63;5053022;28;20440;-79
2022/06/25 11:14:02;;;;;;;3.57;3.27;;;;;;;-143.84;49.68;44925.31;5053242;28;20493;-78
2022/06/25 11:16:31;;;;;;;4.43;3.20;;;;;;;-143.84;49.40;44927.19;5053281;28;20489;-78
2022/06/25 11:19:00;;;;;;;7.87;3.27;;;;;;;-143.84;50.00;44902.44;5052768;28;20904;-79
2022/06/25 11:21:32;;;;;;;3.60;3.40;;;;;;;-143.84;51.70;44951.97;5053284;28;20489;-78
2022/06/25 11:24:19;;;;;;;5.00;3.80;;;;;;;-143.84;51.70;44934.81;5052911;28;20449;-78
2022/06/25 11:29:35;;;;;;;4.00;3.30;;;;;;;-143.84;50.68;44948.16;5053097;28;20414;-78
2022/06/25 11:32:04;;;;;;;3.93;3.60;;;;;;;-143.84;51.61;44923.41;5052966;28;20457;-78
2022/06/25 11:34:32;;;;;;;4.43;3.50;;;;;;;-143.84;51.47;44931.00;5052389;28;20442;-78
2022/06/25 11:37:06;;;;;;;7.40;3.03;;;;;;;-143.84;53.78;44951.97;5052703;28;20955;-78
2022/06/25 11:39:34;;;;;;;3.40;3.10;;;;;;;-143.84;53.47;44971.00;5053254;28;20499;-78
2022/06/25 11:42:02;;;;;;;3.33;2.60;;;;;;;-143.84;53.22;44951.97;5052999;28;20481;-77
2022/06/25 11:44:38;;;;;;;9.60;3.20;;;;;;;-143.84;53.13;44942.44;5069290;28;20441;-77
2022/06/25 11:47:07;;;;;;;4.07;3.30;;;;;;;-143.84;55.00;44927.19;5072578;28;20440;-77
2022/06/25 11:49:38;;;;;;;4.90;3.00;;;;;;;-143.84;53.64;44942.44;5072412;28;20502;-78
2022/06/25 11:52:06;;;;;;;3.43;3.13;;;;;;;-143.84;53.75;44957.66;5072687;28;20951;-78